Time;durP1;ratioP1;P1;durP2;ratioP2;P2;SDS_P1;SDS_P2;PMS_P1;PMS_P2;Temp;Humidity;BMP_temperature;BMP_pressure;BME280_temperature;BME280_humidity;BME280_pressure;Samples;Min_cycle;Max_cycle;Signal;HPM_P1;HPM_P2
2023/04/24 00:01:44;;;;;;;5.10;4.70;;;;;;;9.13;nan;96054.97;4939980;28;20500;-64
2023/04/24 00:04:13;;;;;;;5.43;4.93;;;;;;;9.14;nan;96059.25;4880919;28;20336;-66
2023/04/24 00:06:42;;;;;;;6.40;5.90;;;;;;;9.21;nan;96056.63;4936771;28;20261;-65
2023/04/24 00:09:10;;;;;;;6.90;6.20;;;;;;;9.23;nan;96054.56;4938991;28;20213;-66
2023/04/24 00:11:38;;;;;;;7.00;6.50;;;;;;;9.24;nan;96056.19;4938149;28;20779;-65
2023/04/24 00:14:06;;;;;;;7.03;6.53;;;;;;;9.25;nan;96053.34;4942001;28;20698;-65
2023/04/24 00:16:35;;;;;;;8.50;6.87;;;;;;;9.30;nan;96042.16;4932462;28;20705;-65
2023/04/24 00:19:02;;;;;;;7.20;6.70;;;;;;;9.26;nan;96044.41;4935202;28;20245;-65
2023/04/24 00:21:32;;;;;;;6.70;6.07;;;;;;;9.24;nan;96041.16;4881064;28;20559;-64
2023/04/24 00:24:00;;;;;;;6.93;6.20;;;;;;;9.24;nan;96040.34;4936638;28;20218;-65
2023/04/24 00:26:27;;;;;;;5.83;5.33;;;;;;;9.23;nan;96036.88;4934331;28;20262;-66
2023/04/24 00:28:55;;;;;;;6.43;5.80;;;;;;;9.25;nan;96036.69;4936585;28;20210;-66
2023/04/24 00:31:22;;;;;;;6.67;6.17;;;;;;;9.24;nan;96032.41;4930226;28;20268;-66
2023/04/24 00:33:51;;;;;;;5.80;5.30;;;;;;;9.25;nan;96034.03;4938379;28;20217;-65
2023/04/24 00:36:20;;;;;;;6.10;5.60;;;;;;;9.22;nan;96031.81;4883384;28;20296;-67
2023/04/24 00:38:48;;;;;;;6.30;5.80;;;;;;;9.22;nan;96029.16;4934605;28;20277;-68
2023/04/24 00:41:15;;;;;;;6.40;5.90;;;;;;;9.23;nan;96034.22;4935693;28;20288;-68
2023/04/24 00:43:43;;;;;;;5.40;4.97;;;;;;;9.24;nan;96029.78;4939071;28;20210;-67
2023/04/24 00:46:11;;;;;;;5.30;4.90;;;;;;;9.23;nan;96028.16;4939962;28;20237;-66
2023/04/24 00:48:39;;;;;;;5.70;5.23;;;;;;;9.24;nan;96024.50;4941830;28;20225;-64
2023/04/24 00:51:09;;;;;;;6.57;5.70;;;;;;;9.15;nan;96020.44;4943134;28;20261;-66
2023/04/24 00:53:37;;;;;;;5.87;5.37;;;;;;;9.19;nan;96029.56;4889206;28;20326;-63
2023/04/24 00:56:05;;;;;;;5.13;4.80;;;;;;;9.21;nan;96023.06;4939975;28;20215;-67
2023/04/24 00:58:33;;;;;;;6.67;5.50;;;;;;;9.22;nan;96029.97;4936800;28;20550;-65
2023/04/24 01:01:02;;;;;;;5.73;5.33;;;;;;;9.23;nan;96026.31;4941587;28;20297;-65
2023/04/24 01:03:31;;;;;;;5.77;5.30;;;;;;;9.23;nan;96026.31;4932140;28;20202;-68
2023/04/24 01:05:59;;;;;;;6.00;5.50;;;;;;;9.25;nan;96024.28;4942156;28;20214;-66
2023/04/24 01:08:29;;;;;;;5.13;4.80;;;;;;;9.22;nan;96026.53;4879116;28;20229;-65
2023/04/24 01:10:58;;;;;;;6.07;5.57;;;;;;;9.22;nan;96022.03;4940159;28;20782;-67
2023/04/24 01:13:25;;;;;;;5.63;5.13;;;;;;;9.21;nan;96022.25;4936246;28;20210;-67
2023/04/24 01:15:53;;;;;;;5.57;5.17;;;;;;;9.21;nan;96023.06;4940032;28;20207;-66
2023/04/24 01:18:21;;;;;;;5.97;5.57;;;;;;;9.17;nan;96019.19;4936817;28;20222;-66
2023/04/24 01:20:50;;;;;;;5.20;4.83;;;;;;;9.11;nan;96014.72;4910334;28;20282;-68
2023/04/24 01:23:19;;;;;;;5.60;5.00;;;;;;;9.09;nan;96028.16;4885260;28;20284;-64
2023/04/24 01:25:47;;;;;;;5.83;5.30;;;;;;;9.07;nan;96030.16;4941645;28;20272;-69
2023/04/24 01:28:15;;;;;;;6.13;5.60;;;;;;;9.09;nan;96027.34;4936993;28;20634;-68
2023/04/24 01:30:42;;;;;;;6.37;5.87;;;;;;;9.11;nan;96025.28;4944452;28;20245;-66
2023/04/24 01:33:10;;;;;;;6.03;5.63;;;;;;;9.12;nan;96025.09;4933463;28;20276;-68
2023/04/24 01:35:38;;;;;;;7.80;6.20;;;;;;;9.16;nan;96032.63;4937806;28;20215;-68
2023/04/24 01:38:06;;;;;;;6.73;5.87;;;;;;;9.13;nan;96023.25;4886633;28;20508;-65
2023/04/24 01:40:35;;;;;;;9.00;7.57;;;;;;;9.11;nan;96017.38;4937181;28;21070;-65
2023/04/24 01:43:03;;;;;;;6.53;6.07;;;;;;;9.09;nan;96019.41;4939622;28;20702;-65
2023/04/24 01:45:31;;;;;;;9.67;7.03;;;;;;;9.05;nan;96020.84;4939930;28;20219;-64
2023/04/24 01:47:58;;;;;;;7.80;6.43;;;;;;;9.02;nan;96015.94;4939272;28;20658;-65
2023/04/24 01:50:26;;;;;;;6.60;6.10;;;;;;;8.98;nan;96015.53;4905721;28;20203;-64
2023/04/24 01:52:55;;;;;;;7.87;7.10;;;;;;;8.97;nan;96024.47;4907784;28;20314;-65
2023/04/24 01:55:23;;;;;;;6.67;6.17;;;;;;;8.94;nan;96011.69;4923666;28;20244;-65
2023/04/24 01:57:53;;;;;;;7.17;6.47;;;;;;;8.93;nan;96018.81;4942885;28;20778;-65
2023/04/24 02:00:20;;;;;;;7.33;6.73;;;;;;;8.94;nan;96019.59;4937596;28;20300;-66
2023/04/24 02:02:48;;;;;;;7.40;6.67;;;;;;;8.91;nan;96023.47;4937649;28;20671;-66
2023/04/24 02:05:16;;;;;;;8.30;7.37;;;;;;;8.87;nan;96024.06;4940146;28;20214;-65
2023/04/24 02:07:43;;;;;;;8.57;7.87;;;;;;;8.86;nan;96028.53;4938578;28;20230;-65
2023/04/24 02:10:11;;;;;;;8.90;8.10;;;;;;;8.86;nan;96033.81;4883985;28;20407;-65
2023/04/24 02:12:39;;;;;;;8.10;7.43;;;;;;;8.88;nan;96031.78;4938162;28;20206;-64
2023/04/24 02:15:09;;;;;;;9.33;8.63;;;;;;;8.88;nan;96026.50;4938613;28;20203;-66
2023/04/24 02:17:36;;;;;;;8.73;7.83;;;;;;;8.86;nan;96020.59;4936341;28;20241;-65
2023/04/24 02:20:05;;;;;;;9.07;8.20;;;;;;;8.89;nan;96019.41;4941168;28;20409;-65
2023/04/24 02:22:33;;;;;;;8.60;7.93;;;;;;;8.92;nan;96013.72;4937306;28;20874;-66
2023/04/24 02:25:01;;;;;;;9.70;8.77;;;;;;;8.91;nan;96014.72;4896823;28;20273;-65
2023/04/24 02:27:29;;;;;;;9.23;8.53;;;;;;;8.92;nan;96011.88;4934346;28;20530;-66
2023/04/24 02:29:56;;;;;;;9.80;8.90;;;;;;;8.91;nan;96007.63;4936161;28;20553;-65
2023/04/24 02:32:25;;;;;;;10.57;9.57;;;;;;;8.89;nan;96011.47;4938797;28;20218;-65
2023/04/24 02:34:53;;;;;;;11.40;10.40;;;;;;;8.86;nan;95999.47;4939430;28;20254;-65
2023/04/24 02:37:21;;;;;;;11.20;10.20;;;;;;;8.88;nan;96004.56;4936078;28;20226;-66
2023/04/24 02:39:48;;;;;;;10.67;9.67;;;;;;;8.89;nan;96004.34;4938865;28;20219;-66
2023/04/24 02:42:16;;;;;;;10.50;9.50;;;;;;;8.83;nan;95997.22;4885824;28;20300;-66
2023/04/24 02:44:44;;;;;;;12.20;9.57;;;;;;;8.87;nan;96000.28;4940889;28;20265;-66
2023/04/24 02:47:11;;;;;;;10.30;9.20;;;;;;;8.83;nan;95994.59;4937547;28;20861;-65
2023/04/24 02:49:40;;;;;;;10.93;10.03;;;;;;;8.83;nan;95986.66;4939486;28;20540;-66
2023/04/24 02:52:08;;;;;;;10.57;9.50;;;;;;;8.83;nan;95990.13;4937599;28;20346;-65
2023/04/24 02:54:36;;;;;;;10.23;9.40;;;;;;;8.78;nan;95987.28;4938337;28;20210;-65
2023/04/24 02:57:03;;;;;;;9.93;9.20;;;;;;;8.76;nan;95980.56;4885574;28;20296;-67
2023/04/24 02:59:31;;;;;;;11.07;10.07;;;;;;;8.81;nan;95983.41;4941492;28;20210;-68
2023/04/24 03:01:59;;;;;;;10.10;9.30;;;;;;;8.83;nan;95976.09;4934091;28;20648;-69
2023/04/24 03:04:27;;;;;;;11.03;10.13;;;;;;;8.84;nan;95977.72;4936998;28;20210;-67
2023/04/24 03:06:56;;;;;;;12.13;11.03;;;;;;;8.82;nan;95975.31;4936168;28;20235;-68
2023/04/24 03:09:24;;;;;;;10.40;9.30;;;;;;;8.78;nan;95968.81;4936360;28;20209;-67
2023/04/24 03:11:52;;;;;;;10.23;9.33;;;;;;;8.81;nan;95972.84;4894572;28;20214;-64
2023/04/24 03:14:20;;;;;;;10.90;9.97;;;;;;;8.81;nan;95981.59;4914232;28;20227;-66
2023/04/24 03:16:47;;;;;;;9.97;9.20;;;;;;;8.85;nan;95971.44;4939099;28;20641;-67
2023/04/24 03:19:15;;;;;;;11.07;10.03;;;;;;;8.79;nan;95973.06;4937619;28;20218;-71
2023/04/24 03:21:42;;;;;;;11.30;10.30;;;;;;;8.77;nan;95969.81;4938910;28;20757;-68
2023/04/24 03:24:11;;;;;;;11.60;10.60;;;;;;;8.77;nan;95967.19;4936184;28;20213;-68
2023/04/24 03:26:39;;;;;;;11.80;10.70;;;;;;;8.80;nan;95981.78;4935792;28;20277;-67
2023/04/24 03:29:06;;;;;;;13.00;11.70;;;;;;;8.81;nan;95975.50;4887928;28;20281;-67
2023/04/24 03:31:34;;;;;;;12.40;11.20;;;;;;;8.80;nan;95969.41;4932129;28;20210;-67
2023/04/24 03:34:02;;;;;;;11.13;10.23;;;;;;;8.82;nan;95971.84;4939562;28;20633;-69
2023/04/24 03:36:30;;;;;;;15.03;12.23;;;;;;;8.82;nan;95970.03;4932418;28;20712;-68
2023/04/24 03:38:58;;;;;;;13.10;11.90;;;;;;;8.81;nan;95972.84;4935487;28;20583;-67
2023/04/24 03:41:27;;;;;;;12.90;11.73;;;;;;;8.79;nan;95974.88;4934580;28;20229;-68
2023/04/24 03:43:55;;;;;;;14.00;12.70;;;;;;;8.76;nan;95970.00;4859671;28;20221;-66
2023/04/24 03:46:22;;;;;;;14.83;13.40;;;;;;;8.75;nan;95978.94;4939315;28;20981;-66
2023/04/24 03:48:50;;;;;;;14.37;12.53;;;;;;;8.73;nan;95987.09;4939860;28;20439;-67
2023/04/24 03:51:18;;;;;;;15.30;13.73;;;;;;;8.76;nan;95985.84;4909291;28;20727;-67
2023/04/24 03:53:45;;;;;;;13.53;12.37;;;;;;;8.72;nan;95982.00;4937630;28;20221;-67
2023/04/24 03:56:13;;;;;;;14.83;13.30;;;;;;;8.75;nan;95985.06;4937622;28;20722;-66
2023/04/24 03:58:42;;;;;;;14.80;13.40;;;;;;;8.78;nan;95995.22;4887235;28;20270;-66
2023/04/24 04:01:10;;;;;;;15.33;14.00;;;;;;;8.86;nan;95993.38;4910529;28;20417;-68
2023/04/24 04:03:37;;;;;;;18.20;15.50;;;;;;;8.89;nan;95992.97;4936950;28;20239;-68
2023/04/24 04:06:05;;;;;;;16.17;14.70;;;;;;;8.87;nan;95995.81;4906664;28;20226;-66
2023/04/24 04:08:33;;;;;;;16.23;14.70;;;;;;;8.91;nan;95996.22;4930073;28;20627;-69
2023/04/24 04:11:01;;;;;;;15.87;14.47;;;;;;;8.92;nan;96000.50;4939846;28;20287;-65
2023/04/24 04:13:31;;;;;;;14.30;12.97;;;;;;;8.93;nan;96002.13;4939039;28;20218;-66
2023/04/24 04:16:00;;;;;;;15.20;13.60;;;;;;;8.95;nan;96000.91;4880322;28;20405;-67
2023/04/24 04:18:27;;;;;;;14.87;13.43;;;;;;;8.90;nan;95997.25;4940709;28;20213;-67
2023/04/24 04:20:56;;;;;;;15.40;14.00;;;;;;;8.89;nan;95993.78;4919503;28;20671;-67
2023/04/24 04:23:24;;;;;;;14.63;13.43;;;;;;;8.83;nan;95997.22;4929875;28;20284;-68
2023/04/24 04:25:51;;;;;;;16.30;14.70;;;;;;;8.85;nan;95997.03;4937196;28;20210;-68
2023/04/24 04:28:20;;;;;;;15.70;14.20;;;;;;;8.79;nan;95990.72;4936275;28;20272;-67
2023/04/24 04:30:48;;;;;;;15.93;14.53;;;;;;;8.81;nan;95986.06;4878956;28;20226;-67
2023/04/24 04:33:18;;;;;;;15.47;13.97;;;;;;;8.83;nan;95989.31;4938909;28;20301;-67
2023/04/24 04:35:48;;;;;;;13.53;12.33;;;;;;;8.84;nan;95990.94;4935546;28;20214;-70
2023/04/24 04:38:16;;;;;;;14.07;12.87;;;;;;;8.85;nan;95989.13;4936395;28;20635;-67
2023/04/24 04:40:44;;;;;;;12.53;11.33;;;;;;;8.84;nan;95990.94;4930589;28;20635;-68
2023/04/24 04:43:13;;;;;;;11.83;10.93;;;;;;;8.85;nan;95992.56;4913080;28;20831;-67
2023/04/24 04:45:41;;;;;;;10.63;9.73;;;;;;;8.84;nan;95988.28;4900251;28;20738;-67
2023/04/24 04:48:12;;;;;;;11.20;10.13;;;;;;;8.85;nan;95992.56;4915770;28;20723;-65
2023/04/24 04:50:41;;;;;;;10.87;9.97;;;;;;;8.83;nan;95991.94;4930210;28;20218;-67
2023/04/24 04:53:08;;;;;;;10.90;9.93;;;;;;;8.83;nan;95998.06;4936383;28;20210;-66
2023/04/24 04:55:36;;;;;;;11.03;10.13;;;;;;;8.83;nan;95997.22;4938995;28;20218;-66
2023/04/24 04:58:04;;;;;;;11.37;9.80;;;;;;;8.82;nan;95993.78;4937860;28;20477;-66
2023/04/24 05:00:35;;;;;;;10.87;9.97;;;;;;;8.85;nan;95987.28;4921516;28;20214;-68
2023/04/24 05:03:03;;;;;;;9.57;8.87;;;;;;;8.82;nan;95985.88;4913073;28;20770;-67
2023/04/24 05:05:47;;;;;;;10.73;9.93;;;;;;;8.92;nan;95996.03;4937603;28;20693;-68
2023/04/24 05:08:15;;;;;;;11.50;10.50;;;;;;;8.91;nan;95986.50;4937504;28;20226;-67
2023/04/24 05:10:53;;;;;;;10.73;9.83;;;;;;;8.96;nan;96005.19;4930535;28;20360;-67
2023/04/24 05:13:21;;;;;;;10.60;9.70;;;;;;;8.99;nan;96001.31;4940026;28;20302;-67
2023/04/24 05:16:02;;;;;;;9.37;8.67;;;;;;;9.04;nan;96004.16;4835819;28;20225;-68
2023/04/24 05:18:30;;;;;;;10.10;9.30;;;;;;;9.10;nan;95992.78;4936873;28;20289;-66
2023/04/24 05:20:59;;;;;;;9.57;8.67;;;;;;;9.17;nan;96002.53;4919760;28;20215;-68
2023/04/24 05:23:27;;;;;;;9.67;8.87;;;;;;;9.14;nan;96001.09;4933479;28;20781;-67
2023/04/24 05:25:55;;;;;;;9.63;8.90;;;;;;;9.18;nan;96001.53;4938139;28;20923;-67
2023/04/24 05:28:22;;;;;;;9.60;8.70;;;;;;;9.19;nan;96003.16;4936013;28;20285;-68
2023/04/24 05:30:50;;;;;;;9.00;8.20;;;;;;;9.23;nan;96007.81;4937520;28;20415;-67
2023/04/24 05:33:18;;;;;;;8.67;8.07;;;;;;;9.26;nan;96004.75;4883913;28;20254;-66
2023/04/24 05:35:46;;;;;;;7.77;7.07;;;;;;;9.30;nan;96001.72;4920125;28;20414;-68
2023/04/24 05:38:17;;;;;;;8.27;7.67;;;;;;;9.33;nan;95999.47;4938114;28;20482;-67
2023/04/24 05:40:45;;;;;;;8.33;7.73;;;;;;;9.41;nan;96012.47;4939856;28;20324;-67
2023/04/24 05:43:13;;;;;;;7.20;6.60;;;;;;;9.50;nan;96006.97;4941709;28;20234;-67
2023/04/24 05:45:40;;;;;;;8.13;7.47;;;;;;;9.51;nan;96008.59;4939178;28;20737;-67
2023/04/24 05:48:08;;;;;;;7.57;7.00;;;;;;;9.56;nan;96006.16;4887316;28;20241;-65
2023/04/24 05:50:35;;;;;;;7.20;6.60;;;;;;;9.61;nan;96000.22;4940498;28;20210;-65
2023/04/24 05:53:06;;;;;;;7.03;6.43;;;;;;;9.66;nan;96011.81;4919207;28;20214;-66
2023/04/24 05:55:35;;;;;;;6.97;6.47;;;;;;;9.71;nan;96008.56;4939150;28;20217;-66
2023/04/24 05:58:03;;;;;;;6.37;5.97;;;;;;;9.77;nan;96005.09;4921975;28;20230;-67
2023/04/24 06:00:31;;;;;;;6.40;5.90;;;;;;;9.74;nan;95997.56;4931003;28;20729;-68
2023/04/24 06:02:59;;;;;;;6.03;5.53;;;;;;;9.77;nan;96004.25;4886714;28;20738;-67
2023/04/24 06:05:26;;;;;;;5.67;5.27;;;;;;;9.78;nan;95993.50;4939592;28;20472;-67
2023/04/24 06:07:54;;;;;;;6.23;5.83;;;;;;;9.85;nan;96001.41;4919138;28;20234;-67
2023/04/24 06:10:22;;;;;;;7.10;6.40;;;;;;;9.88;nan;96000.16;4939288;28;20218;-67
2023/04/24 06:12:51;;;;;;;6.67;6.17;;;;;;;9.89;nan;95993.84;4915480;28;20281;-66
2023/04/24 06:15:19;;;;;;;8.10;6.47;;;;;;;9.91;nan;96008.50;4942698;28;20218;-67
2023/04/24 06:17:47;;;;;;;6.33;5.87;;;;;;;9.97;nan;96005.03;4887167;28;20757;-66
2023/04/24 06:20:14;;;;;;;6.23;5.73;;;;;;;10.10;nan;96013.94;4945058;28;20214;-66
2023/04/24 06:22:42;;;;;;;7.23;5.90;;;;;;;10.23;nan;96007.78;4913233;28;20393;-67
2023/04/24 06:25:10;;;;;;;6.60;6.10;;;;;;;10.29;nan;96009.56;4943999;28;20597;-66
2023/04/24 06:27:37;;;;;;;5.70;5.20;;;;;;;10.32;nan;96006.50;4908591;28;20516;-67
2023/04/24 06:30:08;;;;;;;6.63;6.03;;;;;;;10.40;nan;96011.56;4937034;28;20222;-66
2023/04/24 06:32:36;;;;;;;6.43;5.77;;;;;;;10.39;nan;96001.97;4935034;28;20214;-67
2023/04/24 06:35:04;;;;;;;4.83;4.63;;;;;;;10.44;nan;96011.19;4889931;28;20737;-66
2023/04/24 06:37:32;;;;;;;5.17;4.80;;;;;;;10.44;nan;96005.88;4921730;28;20263;-66
2023/04/24 06:39:59;;;;;;;4.10;3.90;;;;;;;10.49;nan;95998.91;4939266;28;20645;-65
2023/04/24 06:42:27;;;;;;;5.13;4.73;;;;;;;10.51;nan;96002.16;4933642;28;20226;-66
2023/04/24 06:44:55;;;;;;;4.43;4.03;;;;;;;10.50;nan;96000.53;4932845;28;20472;-67
2023/04/24 06:47:24;;;;;;;5.30;4.80;;;;;;;10.53;nan;96000.09;4936039;28;20840;-67
2023/04/24 06:49:52;;;;;;;4.37;3.97;;;;;;;10.58;nan;96002.13;4864921;28;21773;-66
2023/04/24 06:52:20;;;;;;;3.90;3.70;;;;;;;10.65;nan;96004.75;4936968;28;20544;-67
2023/04/24 06:54:49;;;;;;;4.17;3.87;;;;;;;10.73;nan;95988.59;4900608;28;20359;-68
2023/04/24 06:57:17;;;;;;;5.03;4.30;;;;;;;10.84;nan;95992.38;4939362;28;20482;-67
2023/04/24 06:59:44;;;;;;;3.90;3.70;;;;;;;10.92;nan;95993.94;4941542;28;20588;-68
2023/04/24 07:02:12;;;;;;;3.77;3.57;;;;;;;11.05;nan;95985.91;4939072;28;20226;-66
2023/04/24 07:04:41;;;;;;;3.53;3.33;;;;;;;11.16;nan;95992.31;4938707;28;20756;-65
2023/04/24 07:07:12;;;;;;;4.00;3.67;;;;;;;11.15;nan;95988.88;4883890;28;20234;-67
2023/04/24 07:09:42;;;;;;;3.90;3.60;;;;;;;11.32;nan;95983.00;4902814;28;20225;-66
2023/04/24 07:12:10;;;;;;;3.13;2.80;;;;;;;11.47;nan;95980.00;4936310;28;20214;-67
2023/04/24 07:14:38;;;;;;;2.73;2.63;;;;;;;11.39;nan;95977.66;4938513;28;20273;-67
2023/04/24 07:17:06;;;;;;;2.67;2.57;;;;;;;11.30;nan;95977.13;4927502;28;21174;-68
2023/04/24 07:19:35;;;;;;;3.27;3.07;;;;;;;11.32;nan;95982.22;4939450;28;20218;-66
2023/04/24 07:22:04;;;;;;;3.00;2.90;;;;;;;11.43;nan;95978.84;4884074;28;20227;-67
2023/04/24 07:24:32;;;;;;;2.93;2.73;;;;;;;11.55;nan;95987.72;4918802;28;20576;-67
2023/04/24 07:27:00;;;;;;;3.10;2.90;;;;;;;11.67;nan;95976.38;4917769;28;20230;-66
2023/04/24 07:29:28;;;;;;;2.47;2.30;;;;;;;11.73;nan;95978.94;4943488;28;20680;-67
2023/04/24 07:31:56;;;;;;;2.40;2.30;;;;;;;11.75;nan;95978.72;4937559;28;20569;-65
2023/04/24 07:34:24;;;;;;;2.23;2.13;;;;;;;11.77;nan;95976.66;4933472;28;20206;-67
2023/04/24 07:36:51;;;;;;;2.80;2.60;;;;;;;11.70;nan;95982.03;4886492;28;20304;-68
2023/04/24 07:39:20;;;;;;;2.77;2.67;;;;;;;11.72;nan;95987.91;4916534;28;21679;-67
2023/04/24 07:41:48;;;;;;;1.93;1.90;;;;;;;11.81;nan;95985.78;4922671;28;20276;-68
2023/04/24 07:44:15;;;;;;;2.17;2.07;;;;;;;11.83;nan;95983.72;4939748;28;20988;-66
2023/04/24 07:46:43;;;;;;;2.40;2.30;;;;;;;12.13;nan;95985.66;4936114;28;20292;-67
2023/04/24 07:49:11;;;;;;;2.10;2.00;;;;;;;12.44;nan;95986.50;4936252;28;20555;-66
2023/04/24 07:51:41;;;;;;;3.10;1.97;;;;;;;12.68;nan;95977.78;4931747;28;20215;-66
2023/04/24 07:54:09;;;;;;;1.90;1.80;;;;;;;12.74;nan;95984.84;4884315;28;20420;-66
2023/04/24 07:56:38;;;;;;;1.30;1.30;;;;;;;12.83;nan;95977.38;4904553;28;20285;-67
2023/04/24 07:59:06;;;;;;;1.90;1.80;;;;;;;12.95;nan;95980.84;4936753;28;20207;-67
2023/04/24 08:01:34;;;;;;;2.80;1.70;;;;;;;13.05;nan;95987.44;4936824;28;20210;-67
2023/04/24 08:04:02;;;;;;;1.63;1.53;;;;;;;13.06;nan;95989.88;4937129;28;20261;-68
2023/04/24 08:06:31;;;;;;;1.77;1.67;;;;;;;12.93;nan;95988.25;4938431;28;20230;-66
2023/04/24 08:08:59;;;;;;;2.03;1.93;;;;;;;12.93;nan;95992.75;4885819;28;21105;-66
2023/04/24 08:11:27;;;;;;;1.70;1.60;;;;;;;13.23;nan;95989.19;4902069;28;20219;-68
2023/04/24 08:13:56;;;;;;;3.77;1.63;;;;;;;13.40;nan;95992.81;4932606;28;20213;-67
2023/04/24 08:16:24;;;;;;;3.00;1.73;;;;;;;13.12;nan;95993.50;4938628;28;20589;-67
2023/04/24 08:18:52;;;;;;;1.43;1.33;;;;;;;12.76;nan;96000.56;4938217;28;20218;-66
2023/04/24 08:21:20;;;;;;;1.47;1.37;;;;;;;12.50;nan;96005.22;4940432;28;20577;-66
2023/04/24 08:23:48;;;;;;;1.60;1.50;;;;;;;12.27;nan;96009.38;4885723;28;20234;-66
2023/04/24 08:26:15;;;;;;;1.40;1.37;;;;;;;11.95;nan;96025.47;4919182;28;20291;-67
2023/04/24 08:28:43;;;;;;;1.83;1.73;;;;;;;11.77;nan;96039.53;4919991;28;20627;-66
2023/04/24 08:31:12;;;;;;;3.33;1.20;;;;;;;11.13;nan;96051.91;4931806;28;20214;-67
2023/04/24 08:33:40;;;;;;;1.87;1.47;;;;;;;10.45;nan;96045.38;4929734;28;20342;-66
2023/04/24 08:36:08;;;;;;;3.07;1.40;;;;;;;10.09;nan;96041.41;4936442;28;20485;-68
2023/04/24 08:38:36;;;;;;;3.13;1.33;;;;;;;9.31;nan;96045.63;4884654;28;20749;-67
2023/04/24 08:41:05;;;;;;;1.80;1.70;;;;;;;8.91;nan;96052.53;4918907;28;20711;-66
2023/04/24 08:43:33;;;;;;;2.70;1.70;;;;;;;8.91;nan;96055.16;4918765;28;20285;-67
2023/04/24 08:46:01;;;;;;;1.53;1.53;;;;;;;8.98;nan;96063.09;4936054;28;20219;-67
2023/04/24 08:48:33;;;;;;;1.50;1.50;;;;;;;9.01;nan;96062.69;4939400;28;20206;-67
2023/04/24 08:51:02;;;;;;;1.77;1.67;;;;;;;9.32;nan;96063.13;4935120;28;20202;-67
2023/04/24 08:53:30;;;;;;;1.67;1.57;;;;;;;9.72;nan;96067.56;4890574;28;20666;-66
2023/04/24 08:55:57;;;;;;;2.17;1.60;;;;;;;10.02;nan;96059.94;4937175;28;20480;-67
2023/04/24 08:58:26;;;;;;;1.80;1.47;;;;;;;10.28;nan;96056.44;4893898;28;20210;-67
2023/04/24 09:00:55;;;;;;;1.37;1.27;;;;;;;10.50;nan;96058.00;4933616;28;20445;-67
2023/04/24 09:03:23;;;;;;;1.63;1.30;;;;;;;10.57;nan;96064.06;4940224;28;20823;-67
2023/04/24 09:05:54;;;;;;;1.57;1.57;;;;;;;10.57;nan;96056.91;4942206;28;20469;-68
2023/04/24 09:08:25;;;;;;;1.37;1.37;;;;;;;10.78;nan;96057.63;4939351;28;20591;-68
2023/04/24 09:10:52;;;;;;;1.50;1.50;;;;;;;10.95;nan;96044.69;4879982;28;20222;-68
2023/04/24 09:13:21;;;;;;;1.40;1.40;;;;;;;11.12;nan;96044.97;4922467;28;20499;-68
2023/04/24 09:15:48;;;;;;;1.57;1.53;;;;;;;11.41;nan;96055.97;4921325;28;20303;-66
2023/04/24 09:18:16;;;;;;;2.47;1.67;;;;;;;11.62;nan;96046.00;4936291;28;20507;-66
2023/04/24 09:21:02;;;;;;;1.97;1.87;;;;;;;11.59;nan;96041.13;4941736;28;20263;-66
2023/04/24 09:23:30;;;;;;;1.87;1.77;;;;;;;11.76;nan;96043.22;4941461;28;20210;-66
2023/04/24 09:25:59;;;;;;;1.73;1.63;;;;;;;11.78;nan;96039.31;4886797;28;20241;-67
2023/04/24 09:28:32;;;;;;;1.77;1.67;;;;;;;12.16;nan;96045.47;4927218;28;20683;-65
2023/04/24 09:31:07;;;;;;;1.93;1.77;;;;;;;12.45;nan;96037.75;4912812;28;20222;-67
2023/04/24 09:33:35;;;;;;;1.70;1.60;;;;;;;12.54;nan;96036.44;4941728;28;20218;-66
2023/04/24 09:36:05;;;;;;;1.43;1.43;;;;;;;12.47;nan;96038.34;4939193;28;20727;-69
2023/04/24 09:38:35;;;;;;;1.83;1.73;;;;;;;12.59;nan;96041.06;4940717;28;20218;-66
2023/04/24 09:41:03;;;;;;;1.97;1.40;;;;;;;12.74;nan;96038.81;4884393;28;20226;-68
2023/04/24 09:43:31;;;;;;;1.70;1.60;;;;;;;12.81;nan;96054.66;4943259;28;20236;-66
2023/04/24 09:46:00;;;;;;;1.70;1.60;;;;;;;12.58;nan;96061.53;4900724;28;20234;-68
2023/04/24 09:48:32;;;;;;;1.67;1.57;;;;;;;12.43;nan;96061.91;4941974;28;20202;-66
2023/04/24 09:51:02;;;;;;;1.90;1.80;;;;;;;12.54;nan;96067.50;4935075;28;20276;-67
2023/04/24 09:53:32;;;;;;;1.60;1.53;;;;;;;12.49;nan;96067.34;4939835;28;20209;-66
2023/04/24 09:56:03;;;;;;;2.00;1.90;;;;;;;12.32;nan;96064.50;4887875;28;20309;-66
2023/04/24 09:58:31;;;;;;;1.53;1.47;;;;;;;11.93;nan;96073.47;4944258;28;20214;-67
2023/04/24 10:00:59;;;;;;;1.80;1.70;;;;;;;11.75;nan;96087.50;4900761;28;20214;-66
2023/04/24 10:03:31;;;;;;;1.60;1.50;;;;;;;11.66;nan;96079.00;4943474;28;20207;-66
2023/04/24 10:05:59;;;;;;;1.93;1.77;;;;;;;11.41;nan;96081.69;4940427;28;20772;-66
2023/04/24 10:08:27;;;;;;;2.67;1.90;;;;;;;11.12;nan;96086.56;4940238;28;20694;-65
2023/04/24 10:10:56;;;;;;;1.40;1.40;;;;;;;11.22;nan;96089.56;4883515;28;20254;-67
2023/04/24 10:13:24;;;;;;;1.73;1.63;;;;;;;11.86;nan;96083.34;4942994;28;20211;-65
2023/04/24 10:15:52;;;;;;;1.73;1.63;;;;;;;12.04;nan;96087.06;4921607;28;20217;-69
2023/04/24 10:18:21;;;;;;;1.87;1.60;;;;;;;12.32;nan;96086.56;4920441;28;20226;-69
2023/04/24 10:20:49;;;;;;;2.00;1.90;;;;;;;12.39;nan;96089.94;4940455;28;20214;-69
2023/04/24 10:23:19;;;;;;;1.73;1.63;;;;;;;12.19;nan;96105.28;4939952;28;20210;-68
2023/04/24 10:25:46;;;;;;;2.10;2.00;;;;;;;11.85;nan;96106.41;4891985;28;20226;-69
2023/04/24 10:28:15;;;;;;;1.70;1.60;;;;;;;11.97;nan;96100.38;4944385;28;20905;-69
2023/04/24 10:30:44;;;;;;;2.50;1.87;;;;;;;12.01;nan;96099.75;4921237;28;20214;-67
2023/04/24 10:33:12;;;;;;;2.43;1.67;;;;;;;12.15;nan;96110.25;4921377;28;20645;-68
2023/04/24 10:35:42;;;;;;;1.63;1.53;;;;;;;12.03;nan;96091.56;4943928;28;20662;-69
2023/04/24 10:38:13;;;;;;;1.60;1.60;;;;;;;12.08;nan;96099.69;4935338;28;20855;-69
2023/04/24 10:40:41;;;;;;;1.47;1.37;;;;;;;12.08;nan;96096.19;4929267;28;20214;-67
2023/04/24 10:43:11;;;;;;;1.70;1.60;;;;;;;12.02;nan;96106.66;4909080;28;20214;-67
2023/04/24 10:45:40;;;;;;;1.50;1.40;;;;;;;12.04;nan;96098.50;4940813;28;20889;-69
2023/04/24 10:48:13;;;;;;;1.50;1.40;;;;;;;12.43;nan;96100.94;4898665;28;20450;-68
2023/04/24 10:50:45;;;;;;;1.73;1.73;;;;;;;12.37;nan;96104.47;4938408;28;20218;-69
2023/04/24 10:53:15;;;;;;;2.23;2.13;;;;;;;12.61;nan;96097.44;4937220;28;20456;-68
2023/04/24 10:55:45;;;;;;;1.70;1.60;;;;;;;12.93;nan;96096.44;4942346;28;20217;-68
2023/04/24 10:58:12;;;;;;;1.40;1.30;;;;;;;13.00;nan;96095.28;4890988;28;21148;-68
2023/04/24 11:00:42;;;;;;;1.97;1.53;;;;;;;12.91;nan;96086.03;4941714;28;20507;-69
2023/04/24 11:03:24;;;;;;;1.70;1.43;;;;;;;13.13;nan;96098.81;4914805;28;20222;-68
2023/04/24 11:05:56;;;;;;;1.77;1.67;;;;;;;13.18;nan;96093.63;4907454;28;20226;-68
2023/04/24 11:08:26;;;;;;;1.53;1.43;;;;;;;13.35;nan;96090.31;4939361;28;20207;-66
2023/04/24 11:11:00;;;;;;;1.60;1.50;;;;;;;13.25;nan;96082.88;4937180;28;20217;-68
2023/04/24 11:13:30;;;;;;;1.77;1.60;;;;;;;13.11;nan;96084.94;4889581;28;20219;-66
2023/04/24 11:16:21;;;;;;;1.90;1.50;;;;;;;12.83;nan;96084.47;4932111;28;20237;-69
2023/04/24 11:18:54;;;;;;;1.33;1.33;;;;;;;12.66;nan;96089.59;4919874;28;20225;-67
2023/04/24 11:21:23;;;;;;;1.60;1.50;;;;;;;12.32;nan;96085.75;4923298;28;20625;-67
2023/04/24 11:23:51;;;;;;;1.83;1.80;;;;;;;12.03;nan;96091.56;4908331;28;20591;-67
2023/04/24 11:26:20;;;;;;;1.37;1.37;;;;;;;12.08;nan;96098.84;4940230;28;20242;-68
2023/04/24 11:28:49;;;;;;;3.17;1.83;;;;;;;11.87;nan;96107.00;4887794;28;20218;-67
2023/04/24 11:31:37;;;;;;;1.60;1.50;;;;;;;11.73;nan;96100.97;4939283;28;20530;-66
2023/04/24 11:34:13;;;;;;;1.37;1.37;;;;;;;11.55;nan;96109.75;4922227;28;20215;-67
2023/04/24 11:36:43;;;;;;;3.27;1.80;;;;;;;11.49;nan;96096.50;4920926;28;20291;-67
2023/04/24 11:39:11;;;;;;;1.77;1.43;;;;;;;11.42;nan;96107.16;4938214;28;20214;-68
2023/04/24 11:41:38;;;;;;;1.97;1.50;;;;;;;11.65;nan;96109.22;4941008;28;20210;-67
2023/04/24 11:44:08;;;;;;;1.67;1.57;;;;;;;11.97;nan;96103.03;4885553;28;21584;-66
2023/04/24 11:46:39;;;;;;;4.87;1.90;;;;;;;12.00;nan;96106.09;4940752;28;20307;-68
2023/04/24 11:49:07;;;;;;;4.20;1.70;;;;;;;12.03;nan;96112.81;4919035;28;20564;-65
2023/04/24 11:51:35;;;;;;;1.57;1.57;;;;;;;12.05;nan;96104.59;4941237;28;20245;-68
2023/04/24 11:54:14;;;;;;;1.70;1.60;;;;;;;12.26;nan;96106.84;4931225;28;20239;-69
2023/04/24 11:56:45;;;;;;;1.60;1.50;;;;;;;12.38;nan;96106.09;4936810;28;20230;-67
2023/04/24 11:59:13;;;;;;;2.77;1.50;;;;;;;12.80;nan;96097.44;4884957;28;21133;-67